createdAt,value
2023-05-18T00:00:04.364Z,75.84
2023-05-18T00:00:37.014Z,76.04
2023-05-18T00:01:09.697Z,76.04
2023-05-18T00:01:42.379Z,75.95
2023-05-18T00:02:15.060Z,75.84
2023-05-18T00:02:47.879Z,75.74
2023-05-18T00:03:20.640Z,75.67
2023-05-18T00:03:47.567Z,75.67
2023-05-18T00:04:20.337Z,75.87
2023-05-18T00:04:53.258Z,75.98
2023-05-18T00:05:19.567Z,75.98
2023-05-18T00:05:52.256Z,75.98
2023-05-18T00:06:25.094Z,76.08
2023-05-18T00:06:57.769Z,76.18
2023-05-18T00:07:30.438Z,76.18
2023-05-18T00:08:03.191Z,76.18
2023-05-18T00:08:35.862Z,76.29
2023-05-18T00:09:08.533Z,76.29
2023-05-18T00:09:41.223Z,76.18
2023-05-18T00:10:13.918Z,76.18
2023-05-18T00:10:46.582Z,76.18
2023-05-18T00:11:19.252Z,76.18
2023-05-18T00:11:51.929Z,76.29
2023-05-18T00:12:24.605Z,76.29
2023-05-18T00:12:57.291Z,76.39
2023-05-18T00:13:29.960Z,76.60
2023-05-18T00:14:02.646Z,76.60
2023-05-18T00:14:35.318Z,76.70
2023-05-18T00:15:07.987Z,76.70
2023-05-18T00:15:40.676Z,76.60
2023-05-18T00:16:13.330Z,76.50
2023-05-18T00:16:46.092Z,76.60
2023-05-18T00:17:18.759Z,76.70
2023-05-18T00:17:51.470Z,76.81
2023-05-18T00:18:24.149Z,76.81
2023-05-18T00:18:56.853Z,76.90
2023-05-18T00:19:29.519Z,76.90
2023-05-18T00:20:02.192Z,76.90
2023-05-18T00:20:34.873Z,76.81
2023-05-18T00:21:07.540Z,76.90
2023-05-18T00:21:40.186Z,76.81
2023-05-18T00:22:12.857Z,76.90
2023-05-18T00:22:45.526Z,76.90
2023-05-18T00:23:18.201Z,76.90
2023-05-18T00:23:50.874Z,76.90
2023-05-18T00:24:23.587Z,76.90
2023-05-18T00:24:56.265Z,77.01
2023-05-18T00:25:29.161Z,77.11
2023-05-18T00:25:55.444Z,77.22
2023-05-18T00:26:28.114Z,77.22
2023-05-18T00:27:00.803Z,77.32
2023-05-18T00:27:33.448Z,77.22
2023-05-18T00:28:06.138Z,77.11
2023-05-18T00:28:38.828Z,77.01
2023-05-18T00:29:09.904Z,77.11
2023-05-18T00:29:42.577Z,77.32
2023-05-18T00:30:15.260Z,77.22
2023-05-18T00:30:47.968Z,77.25
2023-05-18T00:31:20.731Z,77.36
2023-05-18T00:31:53.409Z,77.36
2023-05-18T00:32:26.066Z,77.56
2023-05-18T00:32:58.804Z,77.67
2023-05-18T00:33:31.464Z,77.77
2023-05-18T00:34:04.144Z,77.77
2023-05-18T00:34:36.835Z,77.77
2023-05-18T00:35:09.518Z,77.77
2023-05-18T00:35:42.168Z,77.87
2023-05-18T00:36:14.864Z,77.87
2023-05-18T00:36:47.561Z,77.87
2023-05-18T00:37:20.225Z,78.08
2023-05-18T00:37:52.896Z,78.18
2023-05-18T00:38:25.578Z,78.18
2023-05-18T00:38:58.253Z,78.18
2023-05-18T00:39:30.934Z,78.18
2023-05-18T00:40:03.589Z,78.28
2023-05-18T00:40:36.248Z,78.28
2023-05-18T00:41:08.916Z,78.28
2023-05-18T00:41:41.584Z,78.08
2023-05-18T00:42:14.258Z,78.08
2023-05-18T00:42:46.908Z,78.18
2023-05-18T00:43:19.572Z,78.18
2023-05-18T00:43:52.263Z,78.08
2023-05-18T00:44:24.917Z,78.08
2023-05-18T00:44:57.587Z,78.18
2023-05-18T00:45:30.367Z,78.28
2023-05-18T00:46:03.225Z,78.39
2023-05-18T00:46:35.933Z,78.49
2023-05-18T00:47:08.654Z,78.59
2023-05-18T00:47:41.332Z,78.59
2023-05-18T00:48:14.067Z,78.49
2023-05-18T00:48:46.728Z,78.59
2023-05-18T00:49:19.415Z,78.70
2023-05-18T00:49:52.088Z,78.70
2023-05-18T00:50:24.769Z,78.70
2023-05-18T00:50:57.440Z,78.80
2023-05-18T00:51:30.158Z,78.94
2023-05-18T00:52:02.834Z,79.05
2023-05-18T00:52:35.476Z,79.05
2023-05-18T00:53:08.173Z,79.05
2023-05-18T00:53:43.428Z,78.94
2023-05-18T00:54:10.230Z,78.94
2023-05-18T00:54:42.904Z,78.94
2023-05-18T00:55:15.575Z,78.84
2023-05-18T00:55:48.238Z,78.74
2023-05-18T00:56:20.899Z,78.74
2023-05-18T00:56:53.610Z,78.74
2023-05-18T00:57:26.305Z,78.74
2023-05-18T00:57:58.989Z,78.94
2023-05-18T00:58:31.661Z,79.05
2023-05-18T00:59:04.334Z,79.15
2023-05-18T00:59:37.008Z,79.15
2023-05-18T01:00:09.711Z,79.25
2023-05-18T01:00:42.350Z,79.25
2023-05-18T01:01:15.083Z,79.25
2023-05-18T01:01:47.722Z,79.36
2023-05-18T01:02:20.468Z,79.36
2023-05-18T01:02:53.394Z,79.36
2023-05-18T01:03:26.123Z,79.36
2023-05-18T01:03:58.775Z,79.36
2023-05-18T01:04:31.447Z,79.25
2023-05-18T01:05:04.131Z,79.36
2023-05-18T01:05:36.806Z,79.36
2023-05-18T01:06:09.477Z,79.36
2023-05-18T01:06:42.196Z,79.36
2023-05-18T01:07:14.832Z,79.36
2023-05-18T01:07:47.511Z,79.46
2023-05-18T01:08:20.222Z,79.46
2023-05-18T01:08:52.901Z,79.66
2023-05-18T01:09:25.589Z,79.66
2023-05-18T01:09:58.260Z,79.66
2023-05-18T01:10:30.922Z,79.66
2023-05-18T01:11:03.646Z,79.56
2023-05-18T01:11:36.375Z,79.46
2023-05-18T01:12:09.064Z,79.46
2023-05-18T01:12:41.738Z,79.46
2023-05-18T01:13:14.434Z,79.56
2023-05-18T01:13:47.125Z,79.80
2023-05-18T01:14:19.793Z,79.91
2023-05-18T01:14:52.467Z,79.91
2023-05-18T01:15:25.148Z,79.91
2023-05-18T01:15:57.831Z,79.91
2023-05-18T01:16:30.538Z,79.80
2023-05-18T01:17:03.187Z,79.80
2023-05-18T01:17:35.875Z,79.80
2023-05-18T01:18:08.731Z,79.70
2023-05-18T01:18:41.505Z,79.60
2023-05-18T01:19:14.284Z,79.60
2023-05-18T01:19:46.954Z,79.80
2023-05-18T01:20:19.642Z,79.80
2023-05-18T01:20:52.299Z,79.80
2023-05-18T01:21:24.972Z,79.91
2023-05-18T01:21:57.689Z,80.01
2023-05-18T01:22:30.338Z,80.11
2023-05-18T01:23:03.036Z,80.11
2023-05-18T01:23:35.695Z,80.22
2023-05-18T01:24:08.377Z,80.22
2023-05-18T01:24:41.056Z,80.22
2023-05-18T01:25:13.728Z,80.22
2023-05-18T01:25:46.410Z,80.11
2023-05-18T01:26:19.088Z,80.11
2023-05-18T01:26:51.731Z,80.11
2023-05-18T01:27:24.406Z,80.11
2023-05-18T01:27:57.133Z,80.11
2023-05-18T01:28:29.817Z,80.22
2023-05-18T01:29:02.466Z,80.32
2023-05-18T01:29:35.133Z,80.43
2023-05-18T01:30:07.800Z,80.53
2023-05-18T01:30:40.501Z,80.43
2023-05-18T01:31:13.151Z,80.32
2023-05-18T01:31:45.798Z,80.32
2023-05-18T01:32:18.466Z,80.22
2023-05-18T01:32:51.159Z,80.11
2023-05-18T01:33:23.832Z,80.22
2023-05-18T01:33:56.523Z,80.11
2023-05-18T01:34:29.196Z,80.11
2023-05-18T01:35:01.868Z,80.11
2023-05-18T01:35:34.536Z,80.32
2023-05-18T01:36:07.227Z,80.53
2023-05-18T01:36:39.892Z,80.63
2023-05-18T01:37:12.576Z,80.63
2023-05-18T01:37:45.232Z,80.74
2023-05-18T01:38:17.924Z,80.74
2023-05-18T01:38:50.620Z,80.63
2023-05-18T01:39:23.255Z,80.84
2023-05-18T01:39:55.926Z,80.94
2023-05-18T01:40:28.589Z,80.94
2023-05-18T01:41:01.261Z,80.84
2023-05-18T01:41:33.925Z,80.84
2023-05-18T01:42:06.601Z,80.74
2023-05-18T01:42:39.265Z,80.84
2023-05-18T01:43:11.961Z,80.94
2023-05-18T01:43:44.652Z,81.05
2023-05-18T01:44:17.353Z,81.05
2023-05-18T01:44:50.038Z,81.15
2023-05-18T01:45:22.726Z,81.15
2023-05-18T01:45:55.417Z,81.09
2023-05-18T01:46:28.100Z,81.05
2023-05-18T01:47:00.748Z,80.98
2023-05-18T01:47:33.470Z,80.98
2023-05-18T01:48:06.256Z,81.09
2023-05-18T01:48:38.939Z,81.09
2023-05-18T01:49:11.619Z,80.98
2023-05-18T01:49:44.289Z,80.98
2023-05-18T01:50:16.990Z,81.09
2023-05-18T01:50:49.632Z,80.98
2023-05-18T01:51:22.325Z,80.98
2023-05-18T01:51:54.977Z,81.09
2023-05-18T01:52:27.678Z,81.09
2023-05-18T01:53:00.313Z,81.09
2023-05-18T01:53:33.007Z,81.19
2023-05-18T01:54:05.673Z,81.29
2023-05-18T01:54:38.376Z,81.09
2023-05-18T01:55:11.029Z,81.09
2023-05-18T01:55:43.703Z,80.98
2023-05-18T01:56:16.386Z,80.88
2023-05-18T01:56:49.062Z,80.98
2023-05-18T01:57:21.728Z,80.88
2023-05-18T01:57:54.385Z,80.98
2023-05-18T01:58:27.075Z,81.09
2023-05-18T01:58:59.751Z,81.19
2023-05-18T01:59:32.419Z,81.19
2023-05-18T02:00:05.089Z,81.19
2023-05-18T02:00:37.752Z,81.29
2023-05-18T02:01:10.427Z,81.29
2023-05-18T02:01:43.153Z,81.29
2023-05-18T02:02:15.909Z,81.29
2023-05-18T02:02:48.779Z,81.29
2023-05-18T02:03:21.655Z,81.29
2023-05-18T02:03:54.513Z,81.39
2023-05-18T02:04:27.362Z,81.49
2023-05-18T02:05:00.020Z,81.49
2023-05-18T02:05:32.903Z,81.49
2023-05-18T02:06:05.650Z,81.49
2023-05-18T02:06:38.291Z,81.49
2023-05-18T02:07:10.967Z,81.49
2023-05-18T02:07:43.651Z,81.60
2023-05-18T02:08:16.294Z,81.49
2023-05-18T02:08:48.993Z,81.49
2023-05-18T02:09:21.650Z,81.49
2023-05-18T02:09:54.329Z,81.60
2023-05-18T02:10:26.976Z,81.49
2023-05-18T02:10:59.640Z,81.60
2023-05-18T02:11:32.314Z,81.70
2023-05-18T02:12:04.982Z,81.81
2023-05-18T02:12:37.650Z,81.81
2023-05-18T02:13:10.312Z,81.81
2023-05-18T02:13:43.000Z,81.81
2023-05-18T02:14:15.657Z,81.81
2023-05-18T02:14:48.329Z,81.91
2023-05-18T02:15:20.995Z,81.91
2023-05-18T02:15:53.704Z,81.91
2023-05-18T02:16:26.409Z,81.91
2023-05-18T02:16:59.066Z,81.91
2023-05-18T02:17:31.773Z,81.91
2023-05-18T02:18:04.483Z,81.91
2023-05-18T02:18:37.145Z,81.91
2023-05-18T02:19:09.866Z,81.91
2023-05-18T02:19:42.556Z,81.91
2023-05-18T02:20:13.664Z,81.91
2023-05-18T02:20:46.324Z,81.91
2023-05-18T02:21:19.013Z,81.91
2023-05-18T02:21:51.677Z,81.91
2023-05-18T02:22:24.349Z,81.91
2023-05-18T02:22:57.043Z,81.91
2023-05-18T02:23:29.692Z,82.01
2023-05-18T02:24:02.385Z,82.01
2023-05-18T02:24:35.058Z,82.01
2023-05-18T02:25:07.760Z,82.01
2023-05-18T02:25:40.400Z,82.12
2023-05-18T02:26:13.057Z,82.22
2023-05-18T02:26:45.734Z,82.22
2023-05-18T02:27:18.389Z,82.22
2023-05-18T02:27:51.059Z,82.12
2023-05-18T02:28:23.714Z,82.12
2023-05-18T02:28:56.401Z,82.12
2023-05-18T02:29:29.054Z,82.12
2023-05-18T02:30:01.721Z,82.12
2023-05-18T02:30:34.379Z,82.12
2023-05-18T02:31:07.046Z,82.12
2023-05-18T02:31:39.744Z,82.12
2023-05-18T02:32:12.486Z,82.12
2023-05-18T02:32:45.260Z,82.15
2023-05-18T02:33:17.935Z,82.12
2023-05-18T02:33:50.581Z,82.15
2023-05-18T02:34:23.243Z,82.15
2023-05-18T02:34:55.908Z,82.15
2023-05-18T02:35:28.817Z,82.15
2023-05-18T02:36:01.554Z,82.26
2023-05-18T02:36:34.205Z,82.26
2023-05-18T02:37:06.868Z,82.36
2023-05-18T02:37:39.541Z,82.43
2023-05-18T02:38:12.269Z,82.57
2023-05-18T02:38:44.943Z,82.67
2023-05-18T02:39:17.646Z,82.78
2023-05-18T02:39:50.345Z,82.67
2023-05-18T02:40:23.035Z,82.67
2023-05-18T02:40:55.726Z,82.78
2023-05-18T02:41:28.387Z,82.78
2023-05-18T02:42:01.052Z,82.88
2023-05-18T02:42:33.941Z,82.88
2023-05-18T02:43:06.596Z,82.98
2023-05-18T02:43:39.262Z,82.88
2023-05-18T02:44:11.989Z,82.88
2023-05-18T02:44:44.617Z,82.88
2023-05-18T02:45:17.274Z,82.88
2023-05-18T02:45:50.003Z,82.98
2023-05-18T02:46:22.774Z,83.09
2023-05-18T02:46:55.486Z,83.09
2023-05-18T02:47:28.171Z,83.19
2023-05-18T02:48:00.822Z,83.09
2023-05-18T02:48:33.512Z,83.09
2023-05-18T02:49:06.185Z,83.19
2023-05-18T02:49:38.856Z,83.29
2023-05-18T02:50:11.524Z,83.29
2023-05-18T02:50:44.229Z,83.19
2023-05-18T02:51:16.908Z,83.09
2023-05-18T02:51:49.568Z,82.98
2023-05-18T02:52:22.242Z,82.98
2023-05-18T02:52:54.913Z,82.88
2023-05-18T02:53:27.614Z,82.88
2023-05-18T02:54:00.280Z,82.92
2023-05-18T02:54:32.985Z,82.92
2023-05-18T02:55:05.626Z,83.02
2023-05-18T02:55:38.326Z,83.12
2023-05-18T02:56:10.987Z,83.23
2023-05-18T02:56:43.645Z,83.23
2023-05-18T02:57:16.317Z,83.23
2023-05-18T02:57:49.024Z,83.23
2023-05-18T02:58:21.774Z,83.23
2023-05-18T02:58:54.452Z,83.23
2023-05-18T02:59:27.130Z,83.23
2023-05-18T02:59:59.802Z,83.33
2023-05-18T03:00:32.479Z,83.33
2023-05-18T03:01:05.179Z,83.44
2023-05-18T03:01:37.917Z,83.44
2023-05-18T03:02:10.626Z,83.44
2023-05-18T03:02:43.349Z,83.47
2023-05-18T03:03:16.414Z,83.47
2023-05-18T03:03:42.751Z,83.47
2023-05-18T03:04:15.444Z,83.58
2023-05-18T03:04:49.477Z,83.78
2023-05-18T03:05:19.176Z,83.89
2023-05-18T03:05:51.845Z,84.09
2023-05-18T03:06:24.533Z,84.09
2023-05-18T03:06:57.230Z,84.30
2023-05-18T03:07:29.911Z,84.41
2023-05-18T03:08:02.639Z,84.51
2023-05-18T03:08:35.352Z,84.61
2023-05-18T03:09:08.002Z,84.51
2023-05-18T03:09:40.674Z,84.51
2023-05-18T03:10:13.345Z,84.41
2023-05-18T03:10:46.010Z,84.51
2023-05-18T03:11:18.710Z,84.41
2023-05-18T03:11:51.362Z,84.51
2023-05-18T03:12:24.019Z,84.41
2023-05-18T03:12:56.685Z,84.41
2023-05-18T03:13:29.356Z,84.41
2023-05-18T03:14:02.054Z,84.51
2023-05-18T03:14:34.745Z,84.61
2023-05-18T03:15:07.409Z,84.82
2023-05-18T03:15:40.098Z,84.92
2023-05-18T03:16:12.874Z,84.92
2023-05-18T03:16:45.593Z,84.82
2023-05-18T03:17:18.262Z,84.92
2023-05-18T03:17:51.018Z,84.92
2023-05-18T03:18:23.667Z,84.92
2023-05-18T03:18:56.393Z,84.92
2023-05-18T03:19:29.082Z,84.82
2023-05-18T03:20:01.735Z,84.61
2023-05-18T03:20:34.404Z,84.61
2023-05-18T03:21:07.074Z,84.41
2023-05-18T03:21:39.747Z,84.41
2023-05-18T03:22:12.405Z,84.51
2023-05-18T03:22:45.099Z,84.51
2023-05-18T03:23:17.748Z,84.51
2023-05-18T03:23:50.446Z,84.61
2023-05-18T03:24:23.104Z,84.61
2023-05-18T03:24:55.770Z,84.72
2023-05-18T03:25:28.659Z,84.92
2023-05-18T03:25:55.056Z,85.03
2023-05-18T03:26:27.704Z,85.03
2023-05-18T03:27:00.372Z,85.03
2023-05-18T03:27:33.048Z,84.92
2023-05-18T03:28:05.721Z,85.13
2023-05-18T03:28:38.382Z,85.13
2023-05-18T03:29:11.050Z,85.13
2023-05-18T03:29:43.754Z,85.13
2023-05-18T03:30:14.817Z,85.17
2023-05-18T03:30:47.487Z,85.06
2023-05-18T03:31:20.174Z,85.17
2023-05-18T03:31:52.914Z,85.27
2023-05-18T03:32:25.677Z,85.38
2023-05-18T03:32:58.344Z,85.34
2023-05-18T03:33:31.037Z,85.44
2023-05-18T03:34:03.704Z,85.55
2023-05-18T03:34:36.370Z,85.65
2023-05-18T03:35:09.053Z,85.65
2023-05-18T03:35:40.142Z,85.65
2023-05-18T03:36:12.829Z,85.65
2023-05-18T03:36:45.491Z,85.55
2023-05-18T03:37:18.169Z,85.55
2023-05-18T03:37:50.831Z,85.55
2023-05-18T03:38:23.494Z,85.55
2023-05-18T03:38:56.184Z,85.65
2023-05-18T03:39:28.825Z,85.75
2023-05-18T03:40:01.527Z,85.75
2023-05-18T03:40:34.187Z,85.86
2023-05-18T03:41:06.844Z,85.96
2023-05-18T03:41:39.496Z,86.07
2023-05-18T03:42:12.168Z,86.07
2023-05-18T03:42:44.886Z,86.17
2023-05-18T03:43:17.581Z,86.17
2023-05-18T03:43:50.252Z,86.17
2023-05-18T03:44:22.921Z,86.17
2023-05-18T03:44:55.600Z,86.27
2023-05-18T03:45:28.363Z,86.27
2023-05-18T03:46:01.104Z,86.17
2023-05-18T03:46:33.826Z,86.17
2023-05-18T03:47:06.523Z,86.17
2023-05-18T03:47:39.262Z,86.27
2023-05-18T03:48:11.968Z,86.27
2023-05-18T03:48:44.619Z,86.07
2023-05-18T03:49:17.281Z,86.07
2023-05-18T03:49:49.977Z,86.07
2023-05-18T03:50:22.648Z,86.07
2023-05-18T03:50:55.330Z,86.02
2023-05-18T03:51:27.993Z,85.92
2023-05-18T03:52:00.686Z,85.92
2023-05-18T03:52:33.353Z,85.92
2023-05-18T03:53:06.040Z,85.92
2023-05-18T03:53:38.702Z,85.92
2023-05-18T03:54:11.426Z,85.92
2023-05-18T03:54:44.094Z,85.82
2023-05-18T03:55:16.767Z,85.82
2023-05-18T03:55:49.439Z,85.82
2023-05-18T03:56:22.109Z,85.82
2023-05-18T03:56:54.764Z,85.61
2023-05-18T03:57:27.447Z,85.82
2023-05-18T03:58:00.162Z,86.02
2023-05-18T03:58:32.814Z,86.02
2023-05-18T03:59:05.492Z,86.13
2023-05-18T03:59:38.171Z,86.13
2023-05-18T04:00:10.839Z,86.13
2023-05-18T04:00:43.506Z,86.02
2023-05-18T04:01:16.180Z,86.02
2023-05-18T04:01:48.910Z,86.02
2023-05-18T04:02:21.599Z,86.02
2023-05-18T04:02:54.317Z,86.02
2023-05-18T04:03:27.219Z,85.92
2023-05-18T04:04:00.065Z,85.92
2023-05-18T04:04:32.766Z,85.82
2023-05-18T04:05:05.451Z,85.71
2023-05-18T04:05:38.106Z,85.82
2023-05-18T04:06:10.772Z,85.71
2023-05-18T04:06:43.435Z,85.71
2023-05-18T04:07:15.675Z,85.61
2023-05-18T04:07:41.902Z,85.57
2023-05-18T04:08:14.902Z,85.57
2023-05-18T04:08:41.066Z,85.57
2023-05-18T04:09:13.745Z,85.57
2023-05-18T04:09:46.394Z,85.57
2023-05-18T04:10:19.069Z,85.57
2023-05-18T04:10:51.766Z,85.57
2023-05-18T04:11:24.412Z,85.57
2023-05-18T04:11:57.107Z,85.57
2023-05-18T04:12:29.782Z,85.68
2023-05-18T04:13:02.454Z,85.78
2023-05-18T04:13:35.124Z,85.68
2023-05-18T04:14:07.791Z,85.68
2023-05-18T04:14:40.514Z,85.57
2023-05-18T04:15:13.163Z,85.57
2023-05-18T04:15:45.861Z,85.57
2023-05-18T04:16:18.584Z,85.36
2023-05-18T04:16:51.260Z,85.26
2023-05-18T04:17:23.907Z,85.26
2023-05-18T04:17:56.636Z,85.26
2023-05-18T04:18:29.315Z,85.16
2023-05-18T04:19:02.043Z,85.16
2023-05-18T04:19:34.861Z,85.05
2023-05-18T04:20:07.631Z,85.05
2023-05-18T04:20:40.289Z,84.95
2023-05-18T04:21:12.966Z,84.95
2023-05-18T04:21:45.631Z,84.91
2023-05-18T04:22:18.307Z,84.81
2023-05-18T04:22:50.963Z,84.81
2023-05-18T04:23:23.641Z,84.70
2023-05-18T04:23:56.325Z,84.91
2023-05-18T04:24:29.050Z,84.81
2023-05-18T04:25:01.771Z,84.81
2023-05-18T04:25:34.416Z,84.70
2023-05-18T04:26:07.085Z,84.60
2023-05-18T04:26:39.744Z,84.50
2023-05-18T04:27:12.419Z,84.50
2023-05-18T04:27:45.099Z,84.60
2023-05-18T04:28:17.744Z,84.50
2023-05-18T04:28:50.441Z,84.60
2023-05-18T04:29:23.131Z,84.77
2023-05-18T04:29:55.807Z,84.77
2023-05-18T04:30:28.474Z,84.77
2023-05-18T04:31:01.159Z,84.77
2023-05-18T04:31:33.865Z,84.66
2023-05-18T04:32:06.549Z,84.45
2023-05-18T04:32:39.289Z,84.36
2023-05-18T04:33:12.021Z,84.25
2023-05-18T04:33:44.679Z,84.25
2023-05-18T04:34:17.354Z,84.25
2023-05-18T04:34:50.054Z,84.25
2023-05-18T04:35:22.705Z,84.15
2023-05-18T04:35:55.366Z,84.05
2023-05-18T04:36:28.029Z,83.94
2023-05-18T04:37:00.698Z,84.15
2023-05-18T04:37:33.397Z,84.25
2023-05-18T04:38:06.056Z,84.25
2023-05-18T04:38:38.731Z,84.36
2023-05-18T04:39:11.437Z,84.25
2023-05-18T04:39:44.125Z,84.25
2023-05-18T04:40:16.782Z,84.15
2023-05-18T04:40:49.433Z,84.15
2023-05-18T04:41:22.090Z,84.05
2023-05-18T04:41:54.761Z,84.15
2023-05-18T04:42:27.438Z,84.15
2023-05-18T04:43:00.108Z,84.05
2023-05-18T04:43:32.765Z,83.94
2023-05-18T04:44:05.442Z,84.15
2023-05-18T04:44:38.097Z,84.15
2023-05-18T04:45:10.798Z,84.05
2023-05-18T04:45:43.486Z,83.90
2023-05-18T04:46:14.533Z,83.90
2023-05-18T04:46:47.189Z,83.90
2023-05-18T04:47:20.085Z,83.90
2023-05-18T04:47:52.789Z,83.90
2023-05-18T04:48:25.519Z,83.90
2023-05-18T04:48:58.245Z,83.80
2023-05-18T04:49:30.876Z,83.59
2023-05-18T04:50:03.569Z,83.70
2023-05-18T04:50:36.236Z,83.70
2023-05-18T04:51:08.892Z,83.80
2023-05-18T04:51:41.572Z,83.90
2023-05-18T04:52:14.260Z,83.90
2023-05-18T04:52:46.942Z,83.90
2023-05-18T04:53:19.604Z,83.90
2023-05-18T04:53:52.261Z,83.90
2023-05-18T04:54:24.950Z,83.90
2023-05-18T04:54:57.648Z,83.90
2023-05-18T04:55:30.506Z,83.97
2023-05-18T04:55:56.917Z,83.97
2023-05-18T04:56:29.574Z,83.76
2023-05-18T04:57:02.249Z,83.65
2023-05-18T04:57:34.904Z,83.55
2023-05-18T04:58:07.569Z,83.55
2023-05-18T04:58:40.235Z,83.45
2023-05-18T04:59:12.910Z,83.45
2023-05-18T04:59:45.573Z,83.34
2023-05-18T05:00:18.257Z,83.55
2023-05-18T05:00:51.083Z,83.45
2023-05-18T05:01:23.848Z,83.34
2023-05-18T05:01:56.513Z,83.25
2023-05-18T05:02:29.325Z,83.14
2023-05-18T05:03:02.141Z,83.34
2023-05-18T05:03:34.965Z,83.45
2023-05-18T05:04:05.962Z,83.65
2023-05-18T05:04:38.643Z,83.62
2023-05-18T05:05:11.332Z,83.51
2023-05-18T05:05:43.992Z,83.51
2023-05-18T05:06:16.700Z,83.20
2023-05-18T05:06:49.369Z,83.10
2023-05-18T05:07:22.070Z,83.10
2023-05-18T05:07:54.766Z,83.31
2023-05-18T05:08:35.445Z,83.41
2023-05-18T05:08:55.105Z,83.31
2023-05-18T05:09:27.778Z,83.20
2023-05-18T05:10:00.486Z,83.31
2023-05-18T05:10:33.136Z,83.20
2023-05-18T05:11:05.796Z,83.10
2023-05-18T05:11:38.468Z,82.96
2023-05-18T05:12:11.174Z,83.10
2023-05-18T05:12:43.813Z,83.06
2023-05-18T05:13:16.509Z,82.96
2023-05-18T05:13:49.181Z,82.75
2023-05-18T05:14:21.902Z,82.86
2023-05-18T05:14:54.579Z,82.86
2023-05-18T05:15:27.252Z,82.96
2023-05-18T05:15:59.991Z,83.06
2023-05-18T05:16:32.716Z,82.86
2023-05-18T05:17:05.451Z,82.75
2023-05-18T05:17:38.155Z,82.75
2023-05-18T05:18:10.841Z,82.65
2023-05-18T05:18:44.703Z,82.65
2023-05-18T05:19:12.843Z,82.96
2023-05-18T05:19:45.540Z,82.75
2023-05-18T05:20:18.232Z,82.75
2023-05-18T05:20:50.890Z,82.65
2023-05-18T05:21:23.571Z,82.61
2023-05-18T05:21:56.251Z,82.71
2023-05-18T05:22:28.970Z,82.71
2023-05-18T05:23:01.782Z,82.71
2023-05-18T05:23:34.473Z,82.82
2023-05-18T05:24:07.147Z,82.71
2023-05-18T05:24:39.829Z,82.40
2023-05-18T05:25:12.530Z,82.40
2023-05-18T05:25:45.181Z,82.30
2023-05-18T05:26:17.851Z,82.61
2023-05-18T05:26:50.524Z,82.30
2023-05-18T05:27:23.201Z,82.06
2023-05-18T05:27:55.880Z,81.96
2023-05-18T05:28:28.553Z,81.96
2023-05-18T05:29:01.204Z,82.06
2023-05-18T05:29:33.873Z,82.26
2023-05-18T05:30:06.568Z,82.26
2023-05-18T05:30:39.241Z,82.37
2023-05-18T05:31:11.968Z,82.06
2023-05-18T05:31:44.673Z,81.85
2023-05-18T05:32:17.332Z,81.96
2023-05-18T05:32:50.077Z,81.54
2023-05-18T05:33:22.781Z,81.61
2023-05-18T05:33:55.507Z,81.61
2023-05-18T05:34:28.139Z,80.99
2023-05-18T05:35:00.840Z,80.68
2023-05-18T05:35:34.120Z,80.99
2023-05-18T05:36:00.589Z,81.20
2023-05-18T05:36:33.241Z,81.51
2023-05-18T05:37:05.913Z,81.40
2023-05-18T05:37:38.598Z,81.30
2023-05-18T05:38:11.252Z,80.68
2023-05-18T05:38:43.938Z,80.65
2023-05-18T05:39:16.625Z,80.33
2023-05-18T05:39:49.302Z,80.33
2023-05-18T05:40:21.967Z,80.33
2023-05-18T05:40:54.633Z,80.33
2023-05-18T05:41:27.293Z,80.13
2023-05-18T05:41:59.957Z,80.13
2023-05-18T05:42:32.634Z,80.13
2023-05-18T05:43:05.331Z,80.23
2023-05-18T05:43:38.005Z,80.23
2023-05-18T05:44:10.671Z,80.02
2023-05-18T05:44:43.372Z,80.02
2023-05-18T05:45:16.062Z,80.02
2023-05-18T05:45:48.719Z,79.93
2023-05-18T05:46:15.245Z,79.82
2023-05-18T05:46:47.981Z,79.99
2023-05-18T05:47:20.651Z,79.99
2023-05-18T05:47:53.368Z,79.99
2023-05-18T05:48:26.053Z,80.09
2023-05-18T05:48:58.715Z,80.09
2023-05-18T05:49:31.392Z,79.99
2023-05-18T05:50:04.091Z,79.79
2023-05-18T05:50:36.761Z,79.68
2023-05-18T05:51:09.424Z,79.68
2023-05-18T05:51:42.083Z,79.37
2023-05-18T05:52:14.757Z,79.23
2023-05-18T05:52:47.446Z,78.92
2023-05-18T05:53:20.091Z,78.72
2023-05-18T05:53:52.766Z,78.61
2023-05-18T05:54:25.441Z,78.51
2023-05-18T05:54:58.117Z,78.51
2023-05-18T05:55:31.060Z,78.72
2023-05-18T05:55:57.401Z,78.61
2023-05-18T05:56:30.084Z,78.82
2023-05-18T05:57:02.769Z,78.82
2023-05-18T05:57:35.465Z,78.92
2023-05-18T05:58:08.140Z,78.92
2023-05-18T05:58:40.817Z,78.92
2023-05-18T05:59:13.488Z,78.47
2023-05-18T05:59:46.168Z,78.47
2023-05-18T06:00:18.835Z,78.37
2023-05-18T06:00:51.548Z,78.17
2023-05-18T06:01:24.212Z,78.27
2023-05-18T06:01:56.944Z,78.27
2023-05-18T06:02:29.828Z,78.17
2023-05-18T06:02:56.125Z,77.96
2023-05-18T06:03:28.872Z,77.65
2023-05-18T06:04:01.734Z,77.65
2023-05-18T06:04:34.567Z,78.17
2023-05-18T06:05:07.299Z,78.13
2023-05-18T06:05:39.965Z,78.33
2023-05-18T06:06:12.637Z,78.13
2023-05-18T06:06:45.314Z,78.03
2023-05-18T06:07:17.998Z,78.23
2023-05-18T06:07:50.677Z,78.44
2023-05-18T06:08:23.356Z,77.72
2023-05-18T06:08:56.028Z,77.62
2023-05-18T06:09:28.706Z,77.51
2023-05-18T06:10:01.369Z,77.68
2023-05-18T06:10:34.063Z,77.17
2023-05-18T06:11:07.784Z,77.06
2023-05-18T06:11:35.453Z,76.97
2023-05-18T06:12:08.128Z,76.42
2023-05-18T06:12:40.798Z,76.42
2023-05-18T06:13:13.464Z,76.31
2023-05-18T06:13:46.144Z,75.38
2023-05-18T06:14:18.807Z,75.59
2023-05-18T06:14:51.501Z,75.29
2023-05-18T06:15:24.167Z,75.49
2023-05-18T06:15:56.862Z,75.80
2023-05-18T06:16:29.561Z,76.10
2023-05-18T06:17:02.365Z,76.31
2023-05-18T06:17:35.244Z,76.38
2023-05-18T06:18:07.978Z,75.25
2023-05-18T06:18:40.709Z,75.04
2023-05-18T06:19:13.411Z,74.84
2023-05-18T06:19:46.099Z,74.63
2023-05-18T06:20:18.791Z,74.53
2023-05-18T06:20:51.456Z,74.43
2023-05-18T06:21:24.124Z,74.43
2023-05-18T06:21:56.802Z,74.63
2023-05-18T06:22:29.523Z,74.84
2023-05-18T06:23:02.175Z,74.32
2023-05-18T06:23:34.859Z,74.12
2023-05-18T06:24:07.517Z,74.22
2023-05-18T06:24:40.214Z,74.84
2023-05-18T06:25:12.880Z,74.94
2023-05-18T06:25:45.581Z,74.53
2023-05-18T06:26:18.220Z,74.12
2023-05-18T06:26:50.903Z,73.91
2023-05-18T06:27:23.571Z,74.12
2023-05-18T06:27:56.249Z,74.19
2023-05-18T06:28:28.914Z,74.19
2023-05-18T06:29:01.610Z,74.40
2023-05-18T06:29:34.259Z,74.70
2023-05-18T06:30:06.939Z,74.66
2023-05-18T06:30:39.608Z,74.77
2023-05-18T06:31:12.284Z,74.05
2023-05-18T06:31:45.078Z,73.54
2023-05-18T06:32:17.892Z,74.26
2023-05-18T06:32:50.623Z,74.05
2023-05-18T06:33:23.322Z,73.02
2023-05-18T06:33:55.988Z,72.89
2023-05-18T06:34:28.656Z,72.99
2023-05-18T06:35:01.351Z,73.30
2023-05-18T06:35:34.038Z,72.89
2023-05-18T06:36:06.677Z,72.86
2023-05-18T06:36:39.358Z,72.75
2023-05-18T06:37:12.043Z,72.44
2023-05-18T06:37:46.764Z,72.86
2023-05-18T06:38:13.224Z,73.36
2023-05-18T06:38:45.896Z,73.03
2023-05-18T06:39:18.555Z,72.52
2023-05-18T06:39:51.306Z,72.52
2023-05-18T06:40:23.953Z,72.11
2023-05-18T06:40:56.660Z,71.90
2023-05-18T06:41:29.319Z,71.66
2023-05-18T06:42:02.009Z,71.25
2023-05-18T06:42:34.670Z,70.43
2023-05-18T06:43:07.335Z,70.64
2023-05-18T06:43:40.002Z,70.74
2023-05-18T06:44:12.676Z,70.94
2023-05-18T06:44:45.387Z,70.81
2023-05-18T06:45:18.051Z,69.38
2023-05-18T06:45:50.766Z,68.97
2023-05-18T06:46:23.510Z,69.38
2023-05-18T06:46:56.201Z,69.07
2023-05-18T06:47:28.889Z,69.99
2023-05-18T06:48:01.602Z,69.89
2023-05-18T06:48:34.253Z,69.38
2023-05-18T06:49:06.940Z,69.07
2023-05-18T06:49:39.625Z,69.58
2023-05-18T06:50:12.304Z,69.58
2023-05-18T06:50:44.989Z,69.68
2023-05-18T06:51:17.648Z,69.48
2023-05-18T06:51:50.318Z,69.79
2023-05-18T06:52:24.911Z,68.87
2023-05-18T06:52:52.444Z,68.63
2023-05-18T06:53:25.111Z,68.84
2023-05-18T06:53:57.778Z,69.14
2023-05-18T06:54:30.428Z,69.04
2023-05-18T06:55:03.126Z,68.52
2023-05-18T06:55:35.839Z,67.71
2023-05-18T06:56:08.571Z,67.91
2023-05-18T06:56:41.203Z,67.71
2023-05-18T06:57:13.880Z,67.60
2023-05-18T06:57:46.576Z,67.30
2023-05-18T06:58:19.236Z,67.91
2023-05-18T06:58:51.905Z,68.32